Time;durP1;ratioP1;P1;durP2;ratioP2;P2;SDS_P1;SDS_P2;PMS_P1;PMS_P2;Temp;Humidity;BMP_temperature;BMP_pressure;BME280_temperature;BME280_humidity;BME280_pressure;Samples;Min_cycle;Max_cycle;Signal;HPM_P1;HPM_P2
2023/05/21 00:02:03;;;;;;;9.85;4.88;;;;;;;13.79;100.00;101944.03;5086545;28;20055;-46
2023/05/21 00:04:30;;;;;;;11.48;5.07;;;;;;;13.74;100.00;101943.72;5083708;28;20032;-46
2023/05/21 00:06:56;;;;;;;10.88;5.07;;;;;;;13.72;100.00;101945.78;5091416;28;20036;-45
2023/05/21 00:09:21;;;;;;;12.75;4.70;;;;;;;13.69;100.00;101932.59;5091440;28;20386;-47
2023/05/21 00:11:46;;;;;;;10.38;5.00;;;;;;;13.71;100.00;101933.25;5087601;28;20366;-47
2023/05/21 00:14:12;;;;;;;12.02;5.57;;;;;;;13.64;100.00;101935.00;5087082;28;20064;-47
2023/05/21 00:16:37;;;;;;;11.60;5.13;;;;;;;13.58;100.00;101938.38;5070872;28;20044;-47
2023/05/21 00:19:02;;;;;;;8.75;4.90;;;;;;;13.56;100.00;101940.41;5082667;28;20032;-46
2023/05/21 00:21:28;;;;;;;11.95;5.10;;;;;;;13.55;100.00;101934.16;5076735;28;20042;-47
2023/05/21 00:23:55;;;;;;;8.50;4.82;;;;;;;13.51;100.00;101937.41;5082688;28;20048;-47
2023/05/21 00:26:22;;;;;;;9.73;4.70;;;;;;;13.52;100.00;101939.09;5071208;28;20048;-45
2023/05/21 00:28:48;;;;;;;18.50;4.90;;;;;;;13.51;100.00;101932.00;5070524;28;20028;-45
2023/05/21 00:31:16;;;;;;;9.18;5.43;;;;;;;13.52;100.00;101933.69;5070501;28;20195;-45
2023/05/21 00:33:42;;;;;;;9.10;5.20;;;;;;;13.46;100.00;101929.81;5069871;28;20114;-46
2023/05/21 00:36:07;;;;;;;9.93;5.43;;;;;;;13.45;100.00;101921.84;5070331;28;20123;-46
2023/05/21 00:38:33;;;;;;;9.77;5.32;;;;;;;13.45;100.00;101922.69;5071046;28;20560;-47
2023/05/21 00:41:01;;;;;;;13.27;5.07;;;;;;;13.43;100.00;101924.75;5086532;28;20131;-49
2023/05/21 00:43:27;;;;;;;9.63;4.93;;;;;;;13.40;100.00;101927.78;5089224;28;20025;-44
2023/05/21 00:45:52;;;;;;;10.20;5.50;;;;;;;13.38;100.00;101917.16;5072099;28;20478;-43
2023/05/21 00:48:19;;;;;;;8.80;5.30;;;;;;;13.37;100.00;101920.84;5086267;28;20066;-47
2023/05/21 00:50:45;;;;;;;12.18;5.68;;;;;;;13.31;100.00;101926.97;5051562;28;20112;-48
2023/05/21 00:53:10;;;;;;;8.45;5.53;;;;;;;13.32;100.00;101927.81;5070283;28;20193;-47
2023/05/21 00:55:36;;;;;;;10.60;5.47;;;;;;;13.26;100.00;101929.34;5069949;28;20103;-50
2023/05/21 00:58:03;;;;;;;11.55;5.40;;;;;;;13.25;100.00;101933.06;5079086;28;20070;-45
2023/05/21 01:00:31;;;;;;;11.30;5.68;;;;;;;13.23;100.00;101926.13;5080618;28;20086;-47
2023/05/21 01:02:56;;;;;;;10.02;5.32;;;;;;;13.23;100.00;101918.84;5069297;28;20043;-46
2023/05/21 01:05:21;;;;;;;9.43;5.60;;;;;;;13.19;100.00;101931.03;5070660;28;20028;-47
2023/05/21 01:07:47;;;;;;;10.60;5.65;;;;;;;13.18;100.00;101926.63;5070572;28;20124;-46
2023/05/21 01:10:12;;;;;;;9.93;5.75;;;;;;;13.10;100.00;101924.78;5079929;28;20107;-44
2023/05/21 01:12:38;;;;;;;9.00;5.93;;;;;;;13.14;100.00;101920.75;5089406;28;20482;-49
2023/05/21 01:15:04;;;;;;;11.70;5.90;;;;;;;13.15;100.00;101925.13;5079161;28;20036;-45
2023/05/21 01:17:30;;;;;;;14.13;6.57;;;;;;;13.12;100.00;101921.94;5075020;28;20033;-46
2023/05/21 01:19:59;;;;;;;13.50;5.88;;;;;;;13.11;100.00;101920.22;5069960;28;20032;-46
2023/05/21 01:22:27;;;;;;;13.15;5.88;;;;;;;13.14;100.00;101917.22;5085538;28;20039;-45
2023/05/21 01:24:54;;;;;;;10.40;6.20;;;;;;;13.13;100.00;101910.94;5089185;28;20028;-46
2023/05/21 01:27:19;;;;;;;11.38;6.25;;;;;;;13.03;100.00;101912.97;5090127;28;20024;-47
2023/05/21 01:29:45;;;;;;;10.00;6.13;;;;;;;12.98;100.00;101914.50;5073244;28;20033;-46
2023/05/21 01:32:18;;;;;;;10.85;6.38;;;;;;;12.95;100.00;101918.41;5082649;28;20059;-46
2023/05/21 01:35:01;;;;;;;14.18;6.60;;;;;;;12.95;100.00;101918.41;5089512;28;20016;-45
2023/05/21 01:37:30;;;;;;;10.05;5.90;;;;;;;12.95;100.00;101913.00;5089129;28;20077;-49
2023/05/21 01:40:00;;;;;;;13.68;6.90;;;;;;;12.92;100.00;101922.28;5070461;28;20123;-46
2023/05/21 01:42:27;;;;;;;11.25;6.35;;;;;;;12.93;100.00;101923.16;5076053;28;20059;-45
2023/05/21 01:44:54;;;;;;;14.75;7.03;;;;;;;12.91;100.00;101922.47;5078104;28;20039;-45
2023/05/21 01:47:22;;;;;;;18.42;7.25;;;;;;;12.89;100.00;101917.22;5089973;28;20103;-48
2023/05/21 01:49:49;;;;;;;15.70;6.43;;;;;;;12.90;100.00;101913.53;5071583;28;20035;-48
2023/05/21 01:52:15;;;;;;;17.85;6.78;;;;;;;12.90;100.00;101918.94;5084124;28;20039;-45
2023/05/21 01:54:40;;;;;;;9.82;6.22;;;;;;;12.95;100.00;101921.09;5090123;28;20032;-48
2023/05/21 01:57:06;;;;;;;13.55;6.72;;;;;;;12.92;100.00;101916.03;5084072;28;20027;-48
2023/05/21 01:59:32;;;;;;;10.00;6.05;;;;;;;12.94;100.00;101916.72;5084321;28;20050;-45
2023/05/21 02:01:57;;;;;;;17.50;6.50;;;;;;;12.93;100.00;101915.06;5080661;28;20035;-48
2023/05/21 02:04:22;;;;;;;13.85;6.50;;;;;;;12.94;100.00;101925.66;5087865;28;20040;-47
2023/05/21 02:06:48;;;;;;;14.73;7.47;;;;;;;13.00;100.00;101923.28;5089962;28;20474;-46
2023/05/21 02:09:13;;;;;;;12.73;6.60;;;;;;;13.01;100.00;101914.19;5088140;28;20489;-45
2023/05/21 02:11:38;;;;;;;13.63;7.15;;;;;;;13.05;100.00;101910.94;5079211;28;20039;-46
2023/05/21 02:14:04;;;;;;;11.32;6.68;;;;;;;13.15;100.00;101916.19;5069642;28;20073;-45
2023/05/21 02:16:29;;;;;;;13.25;6.40;;;;;;;13.17;100.00;101911.44;5069727;28;20082;-49
2023/05/21 02:18:56;;;;;;;13.40;7.10;;;;;;;13.20;100.00;101907.56;5069774;28;20389;-46
2023/05/21 02:21:22;;;;;;;13.25;6.47;;;;;;;13.21;100.00;101910.06;5071310;28;20047;-46
2023/05/21 02:23:47;;;;;;;14.90;7.47;;;;;;;13.20;100.00;101907.56;5069440;28;20033;-46
2023/05/21 02:26:12;;;;;;;18.50;7.05;;;;;;;13.20;100.00;101907.56;5069570;28;20031;-47
2023/05/21 02:28:38;;;;;;;15.20;7.63;;;;;;;13.17;100.00;101906.88;5087210;28;20042;-46
2023/05/21 02:31:03;;;;;;;13.93;7.03;;;;;;;13.22;100.00;101906.38;5090507;28;20393;-47
2023/05/21 02:33:28;;;;;;;13.35;6.53;;;;;;;13.26;100.00;101913.13;5092787;28;20154;-48
2023/05/21 02:35:54;;;;;;;16.40;6.68;;;;;;;13.22;100.00;101914.47;5073732;28;20060;-46
2023/05/21 02:38:21;;;;;;;11.60;6.35;;;;;;;13.26;100.00;101906.84;5073445;28;20021;-47
2023/05/21 02:40:47;;;;;;;21.20;7.15;;;;;;;13.23;100.00;101908.03;5084301;28;20410;-48
2023/05/21 02:43:12;;;;;;;17.00;6.60;;;;;;;13.25;100.00;101906.00;5091021;28;20027;-47
2023/05/21 02:45:38;;;;;;;13.60;6.82;;;;;;;13.27;100.00;101898.63;5073202;28;20170;-49
2023/05/21 02:48:04;;;;;;;16.77;7.68;;;;;;;13.26;100.00;101905.03;5072084;28;20459;-50
2023/05/21 02:50:29;;;;;;;12.75;6.90;;;;;;;13.24;100.00;101904.31;5078783;28;20533;-48
2023/05/21 02:52:54;;;;;;;14.80;7.45;;;;;;;13.26;100.00;101901.44;5092666;28;20103;-48
2023/05/21 02:55:20;;;;;;;11.13;6.75;;;;;;;13.29;100.00;101912.78;5093086;28;20024;-49
2023/05/21 02:57:45;;;;;;;12.95;7.22;;;;;;;13.34;100.00;101902.28;5093153;28;20510;-45
2023/05/21 03:00:11;;;;;;;19.95;7.00;;;;;;;13.37;100.00;101898.38;5080653;28;20093;-44
2023/05/21 03:02:36;;;;;;;13.52;6.97;;;;;;;13.34;100.00;101896.03;5073489;28;20667;-44
2023/05/21 03:05:02;;;;;;;13.68;7.32;;;;;;;13.35;100.00;101895.03;5073101;28;20036;-49
2023/05/21 03:07:27;;;;;;;20.02;7.55;;;;;;;13.31;100.00;101894.53;5073218;28;20060;-46
2023/05/21 03:09:53;;;;;;;14.68;7.07;;;;;;;13.32;100.00;101895.38;5092980;28;20427;-47
2023/05/21 03:12:18;;;;;;;11.50;6.95;;;;;;;13.34;100.00;101891.47;5089538;28;20028;-47
2023/05/21 03:14:45;;;;;;;22.42;7.25;;;;;;;13.36;100.00;101905.66;5092895;28;20561;-44
2023/05/21 03:17:12;;;;;;;14.55;7.13;;;;;;;13.40;100.00;101892.63;5092890;28;20058;-45
2023/05/21 03:19:39;;;;;;;16.63;7.50;;;;;;;13.42;100.00;101892.47;5092711;28;20028;-48
2023/05/21 03:22:05;;;;;;;19.67;7.88;;;;;;;13.45;100.00;101889.41;5085851;28;20082;-45
2023/05/21 03:24:31;;;;;;;13.93;7.68;;;;;;;13.47;100.00;101898.19;5072707;28;20048;-44
2023/05/21 03:26:58;;;;;;;14.60;7.22;;;;;;;13.47;100.00;101898.19;5072672;28;20036;-44
2023/05/21 03:29:23;;;;;;;16.95;7.38;;;;;;;13.50;100.00;101897.84;5072444;28;20486;-47
2023/05/21 03:31:51;;;;;;;14.02;7.05;;;;;;;13.56;100.00;101892.59;5073774;28;20074;-49
2023/05/21 03:34:18;;;;;;;14.50;7.53;;;;;;;13.57;100.00;101893.44;5078132;28;20037;-49
2023/05/21 03:36:44;;;;;;;15.48;7.55;;;;;;;13.58;100.00;101884.28;5076343;28;20387;-47
2023/05/21 03:39:09;;;;;;;10.38;6.80;;;;;;;13.55;100.00;101881.94;5072310;28;20035;-44
2023/05/21 03:41:35;;;;;;;15.57;7.85;;;;;;;13.55;100.00;101890.88;5079276;28;20034;-46
2023/05/21 03:44:00;;;;;;;13.98;7.60;;;;;;;13.62;100.00;101885.63;5072267;28;20028;-47
2023/05/21 03:46:27;;;;;;;13.82;7.50;;;;;;;13.60;100.00;101888.50;5072448;28;20039;-45
2023/05/21 03:48:52;;;;;;;14.02;7.25;;;;;;;13.66;100.00;101883.41;5071960;28;20024;-46
2023/05/21 03:51:19;;;;;;;15.68;7.85;;;;;;;13.70;100.00;101882.03;5074827;28;20086;-48
2023/05/21 03:53:44;;;;;;;19.48;7.68;;;;;;;13.73;100.00;101887.09;5091931;28;20048;-46
2023/05/21 03:56:10;;;;;;;14.55;7.22;;;;;;;13.75;100.00;101894.00;5090666;28;20429;-46
2023/05/21 03:58:35;;;;;;;17.15;7.60;;;;;;;13.72;100.00;101886.25;5070310;28;20033;-44
2023/05/21 04:01:01;;;;;;;14.95;7.68;;;;;;;13.72;100.00;101897.06;5071590;28;20086;-45
2023/05/21 04:03:27;;;;;;;16.85;7.38;;;;;;;13.74;100.00;101888.75;5071567;28;20081;-47
2023/05/21 04:05:52;;;;;;;13.38;7.32;;;;;;;13.77;100.00;101886.56;5071435;28;20135;-45
2023/05/21 04:08:18;;;;;;;19.63;7.53;;;;;;;13.82;100.00;101895.00;5071664;28;20082;-46
2023/05/21 04:10:43;;;;;;;14.32;7.40;;;;;;;13.81;100.00;101890.59;5070677;28;20566;-46
2023/05/21 04:13:08;;;;;;;14.35;7.90;;;;;;;13.76;100.00;101890.28;5075008;28;20409;-46
2023/05/21 04:15:34;;;;;;;14.73;8.38;;;;;;;13.80;100.00;101897.03;5070987;28;20020;-45
2023/05/21 04:17:59;;;;;;;18.42;8.25;;;;;;;13.86;100.00;101898.19;5071072;28;20162;-46
2023/05/21 04:20:25;;;;;;;15.60;8.13;;;;;;;13.88;100.00;101901.56;5071225;28;20013;-46
2023/05/21 04:22:50;;;;;;;15.10;7.57;;;;;;;13.90;100.00;101887.81;5086447;28;20024;-49
2023/05/21 04:25:16;;;;;;;16.02;8.27;;;;;;;13.92;100.00;101896.63;5071264;28;20116;-51
2023/05/21 04:27:42;;;;;;;16.30;8.02;;;;;;;14.00;100.00;101893.84;5086304;28;20207;-46
2023/05/21 04:30:08;;;;;;;18.05;7.95;;;;;;;13.97;100.00;101888.81;5080588;28;20073;-45
2023/05/21 04:32:34;;;;;;;14.65;8.00;;;;;;;13.97;100.00;101883.41;5071925;28;20032;-44
2023/05/21 04:34:59;;;;;;;15.07;8.00;;;;;;;14.01;100.00;101890.16;5080360;28;20028;-45
2023/05/21 04:37:26;;;;;;;15.43;7.47;;;;;;;14.00;100.00;101883.88;5090236;28;20032;-47
2023/05/21 04:39:53;;;;;;;17.40;8.50;;;;;;;13.98;100.00;101887.78;5089808;28;20048;-45
2023/05/21 04:42:18;;;;;;;16.02;8.48;;;;;;;14.04;100.00;101895.19;5078070;28;20040;-48
2023/05/21 04:44:44;;;;;;;14.85;7.97;;;;;;;14.07;100.00;101894.84;5076697;28;20024;-45
2023/05/21 04:47:11;;;;;;;18.92;8.00;;;;;;;14.06;100.00;101893.16;5089425;28;20107;-47
2023/05/21 04:49:36;;;;;;;14.73;7.63;;;;;;;14.02;100.00;101894.53;5078993;28;20486;-45
2023/05/21 04:52:01;;;;;;;15.30;8.82;;;;;;;14.04;100.00;101892.50;5073700;28;20032;-46
2023/05/21 04:54:27;;;;;;;13.82;7.57;;;;;;;14.10;100.00;101894.47;5083333;28;20454;-49
2023/05/21 04:56:53;;;;;;;16.60;8.18;;;;;;;14.10;100.00;101897.19;5077086;28;20089;-45
2023/05/21 04:59:19;;;;;;;16.40;7.45;;;;;;;14.14;100.00;101890.41;5084233;28;20024;-44
2023/05/21 05:01:44;;;;;;;13.05;7.50;;;;;;;14.16;100.00;101893.75;5079150;28;20346;-48
2023/05/21 05:04:09;;;;;;;16.92;7.50;;;;;;;14.15;100.00;101894.78;5079385;28;20078;-45
2023/05/21 05:06:35;;;;;;;12.20;7.45;;;;;;;14.24;100.00;101882.00;5079734;28;20109;-45
2023/05/21 05:09:00;;;;;;;14.25;7.93;;;;;;;14.27;100.00;101878.97;5079709;28;20051;-47
2023/05/21 05:11:25;;;;;;;12.90;7.85;;;;;;;14.34;100.00;101879.06;5079735;28;20130;-43
2023/05/21 05:13:51;;;;;;;11.88;8.02;;;;;;;14.36;100.00;101875.16;5078178;28;20027;-46
2023/05/21 05:16:17;;;;;;;16.58;8.32;;;;;;;14.41;100.00;101880.03;5081218;28;20024;-46
2023/05/21 05:18:42;;;;;;;14.32;7.40;;;;;;;14.43;100.00;101873.41;5076955;28;20048;-45
2023/05/21 05:21:07;;;;;;;14.52;8.52;;;;;;;14.51;100.00;101875.22;5077696;28;20023;-47
2023/05/21 05:23:33;;;;;;;14.75;7.93;;;;;;;14.60;100.00;101867.88;5080767;28;20134;-45
2023/05/21 05:25:58;;;;;;;13.13;7.63;;;;;;;14.68;100.00;101871.34;5081030;28;20484;-44
2023/05/21 05:28:24;;;;;;;13.90;7.55;;;;;;;14.78;100.00;101867.53;5079766;28;20039;-46
2023/05/21 05:30:49;;;;;;;14.30;7.50;;;;;;;14.84;100.00;101864.09;5077963;28;20133;-46
2023/05/21 05:33:15;;;;;;;18.10;7.65;;;;;;;14.87;100.00;101858.28;5081327;28;20375;-47
2023/05/21 05:35:40;;;;;;;13.93;7.57;;;;;;;14.89;100.00;101856.25;5079768;28;20106;-48
2023/05/21 05:38:07;;;;;;;11.73;7.93;;;;;;;14.92;100.00;101856.69;5081603;28;20028;-50
2023/05/21 05:40:33;;;;;;;11.82;7.85;;;;;;;14.94;100.00;101851.09;5067557;28;20031;-45
2023/05/21 05:42:58;;;;;;;11.93;7.13;;;;;;;14.95;100.00;101855.50;5085494;28;20385;-47
2023/05/21 05:45:25;;;;;;;14.95;8.05;;;;;;;14.95;100.00;101846.53;5106983;28;20084;-45
2023/05/21 05:47:50;;;;;;;11.60;7.30;;;;;;;14.96;100.00;101851.78;5108252;28;20042;-46
2023/05/21 05:50:16;;;;;;;14.45;6.70;;;;;;;14.92;100.00;101845.03;5097591;28;20365;-48
2023/05/21 05:52:41;;;;;;;11.75;7.55;;;;;;;14.99;100.00;101845.97;5068924;28;20052;-45
2023/05/21 05:55:07;;;;;;;14.02;7.68;;;;;;;14.93;100.00;101849.44;5068147;28;20024;-46
2023/05/21 05:57:33;;;;;;;13.50;7.60;;;;;;;14.90;100.00;101839.81;5074246;28;20561;-46
2023/05/21 05:59:58;;;;;;;12.10;7.63;;;;;;;14.99;100.00;101851.38;5083873;28;20028;-47
2023/05/21 06:02:23;;;;;;;21.27;7.25;;;;;;;15.01;100.00;101849.34;5085356;28;20354;-44
2023/05/21 06:04:50;;;;;;;11.32;7.60;;;;;;;15.01;100.00;101849.34;5088858;28;20057;-43
2023/05/21 06:07:16;;;;;;;14.80;7.50;;;;;;;15.06;100.00;101851.47;5072712;28;20024;-46
2023/05/21 06:09:41;;;;;;;11.30;6.78;;;;;;;15.07;100.00;101848.59;5087624;28;20038;-48
2023/05/21 06:12:06;;;;;;;10.75;7.00;;;;;;;15.12;100.00;101862.44;5082451;28;20112;-48
2023/05/21 06:14:32;;;;;;;13.35;7.50;;;;;;;15.18;100.00;101865.41;5088866;28;20024;-44
2023/05/21 06:16:57;;;;;;;20.20;7.55;;;;;;;15.25;100.00;101853.63;5091888;28;20036;-46
2023/05/21 06:19:22;;;;;;;13.55;7.35;;;;;;;15.31;100.00;101857.47;5075462;28;20028;-47
2023/05/21 06:21:48;;;;;;;14.15;7.15;;;;;;;15.37;100.00;101859.41;5089405;28;20028;-50
2023/05/21 06:24:13;;;;;;;12.75;6.72;;;;;;;15.39;100.00;101857.34;5088624;28;20050;-46
2023/05/21 06:26:38;;;;;;;13.07;8.20;;;;;;;15.40;100.00;101853.59;5082430;28;20067;-47
2023/05/21 06:29:04;;;;;;;19.27;7.55;;;;;;;15.43;100.00;101858.66;5073077;28;20075;-49
2023/05/21 06:31:31;;;;;;;10.88;7.13;;;;;;;15.42;100.00;101856.97;5083455;28;20415;-50
2023/05/21 06:33:57;;;;;;;13.48;7.00;;;;;;;15.48;100.00;101858.09;5082810;28;20478;-47
2023/05/21 06:36:24;;;;;;;11.57;7.13;;;;;;;15.52;100.00;101856.69;5072033;28;20076;-44
2023/05/21 06:38:50;;;;;;;13.70;7.70;;;;;;;15.56;100.00;101853.41;5072013;28;20469;-47
2023/05/21 06:41:15;;;;;;;14.50;8.35;;;;;;;15.59;100.00;101852.19;5071686;28;20109;-46
2023/05/21 06:43:40;;;;;;;12.02;7.07;;;;;;;15.63;100.00;101858.91;5076470;28;20021;-43
2023/05/21 06:46:06;;;;;;;14.85;7.13;;;;;;;15.65;100.00;101858.72;5071495;28;20020;-47
2023/05/21 06:48:31;;;;;;;14.30;7.40;;;;;;;15.74;100.00;101865.72;5072024;28;20094;-50
2023/05/21 06:50:56;;;;;;;18.10;8.02;;;;;;;15.77;100.00;101862.63;5078060;28;20115;-47
2023/05/21 06:53:22;;;;;;;12.55;6.93;;;;;;;15.82;100.00;101857.47;5090711;28;20125;-47
2023/05/21 06:55:47;;;;;;;13.68;7.72;;;;;;;15.93;100.00;101853.41;5091076;28;20043;-47
2023/05/21 06:58:13;;;;;;;17.30;7.45;;;;;;;16.05;100.00;101853.75;5083624;28;20217;-47
2023/05/21 07:00:38;;;;;;;14.63;8.07;;;;;;;16.14;100.00;101855.28;5081968;28;20039;-44
2023/05/21 07:03:04;;;;;;;12.10;7.75;;;;;;;16.27;100.00;101858.13;5089335;28;20122;-46
2023/05/21 07:05:29;;;;;;;10.07;6.93;;;;;;;16.40;100.00;101865.56;5090353;28;20032;-46
2023/05/21 07:07:55;;;;;;;11.82;7.05;;;;;;;16.48;100.00;101861.88;5090699;28;20097;-46
2023/05/21 07:10:20;;;;;;;12.15;7.40;;;;;;;16.58;100.00;101863.22;5089266;28;20028;-48
2023/05/21 07:12:46;;;;;;;12.68;7.30;;;;;;;16.64;100.00;101872.47;5090642;28;20047;-47
2023/05/21 07:15:11;;;;;;;10.30;7.05;;;;;;;16.77;100.00;101874.44;5084692;28;20112;-46
2023/05/21 07:17:37;;;;;;;15.13;7.82;;;;;;;16.83;100.00;101865.53;5081636;28;20502;-48
2023/05/21 07:20:07;;;;;;;14.35;8.50;;;;;;;16.92;100.00;101858.06;5072815;28;20436;-47
2023/05/21 07:22:32;;;;;;;11.55;7.63;;;;;;;16.94;100.00;101864.97;5073828;28;20529;-46
2023/05/21 07:24:58;;;;;;;11.07;7.53;;;;;;;16.95;100.00;101868.53;5081686;28;20056;-48
2023/05/21 07:27:23;;;;;;;11.55;7.60;;;;;;;16.98;100.00;101868.13;5069206;28;20016;-46
2023/05/21 07:29:48;;;;;;;16.90;8.10;;;;;;;17.06;100.00;101847.09;5089306;28;20024;-47
2023/05/21 07:32:14;;;;;;;16.35;7.85;;;;;;;17.14;100.00;101864.25;5085284;28;20028;-45
2023/05/21 07:34:39;;;;;;;12.48;7.50;;;;;;;17.22;100.00;101870.41;5082624;28;20059;-48
2023/05/21 07:37:04;;;;;;;10.55;7.30;;;;;;;17.37;100.00;101862.06;5076807;28;20110;-46
2023/05/21 07:39:30;;;;;;;10.98;7.18;;;;;;;17.40;100.00;101856.22;5083065;28;20070;-46
2023/05/21 07:41:55;;;;;;;10.77;7.75;;;;;;;17.34;100.00;101849.72;5081060;28;20078;-47
2023/05/21 07:44:21;;;;;;;17.25;7.82;;;;;;;17.38;100.00;101844.72;5075207;28;20063;-47
2023/05/21 07:46:46;;;;;;;11.18;7.15;;;;;;;17.43;100.00;101852.25;5079761;28;20488;-45
2023/05/21 07:49:15;;;;;;;14.30;7.93;;;;;;;17.41;100.00;101846.22;5087438;28;20019;-47
2023/05/21 07:51:41;;;;;;;9.55;7.18;;;;;;;17.31;100.00;101852.84;5073922;28;20122;-47
2023/05/21 07:54:06;;;;;;;14.05;7.18;;;;;;;17.27;100.00;101848.88;5069764;28;20057;-47
2023/05/21 07:56:32;;;;;;;16.50;7.70;;;;;;;17.37;100.00;101850.38;5070644;28;20029;-45
2023/05/21 07:58:57;;;;;;;15.27;7.32;;;;;;;17.38;100.00;101850.19;5083784;28;20112;-47
2023/05/21 08:01:23;;;;;;;11.38;7.28;;;;;;;17.38;100.00;101852.03;5082291;28;20592;-45
2023/05/21 08:03:48;;;;;;;12.05;7.45;;;;;;;17.29;100.00;101854.91;5078506;28;20016;-48
2023/05/21 08:06:13;;;;;;;15.77;7.78;;;;;;;17.24;100.00;101862.84;5080738;28;20047;-46
2023/05/21 08:08:39;;;;;;;13.82;7.93;;;;;;;17.20;100.00;101842.53;5084233;28;20069;-45
2023/05/21 08:11:04;;;;;;;12.68;7.00;;;;;;;17.22;100.00;101843.19;5090650;28;20027;-45
2023/05/21 08:13:30;;;;;;;14.68;7.90;;;;;;;17.21;100.00;101846.94;5075963;28;20114;-46
2023/05/21 08:15:55;;;;;;;12.52;7.32;;;;;;;17.28;100.00;101852.44;5077705;28;20039;-44
2023/05/21 08:18:22;;;;;;;11.20;7.13;;;;;;;17.38;100.00;101846.59;5090145;28;20032;-45
2023/05/21 08:20:49;;;;;;;17.23;8.05;;;;;;;17.55;100.00;101850.66;5085906;28;20032;-46
2023/05/21 08:23:14;;;;;;;12.32;7.10;;;;;;;17.51;100.00;101852.94;5073762;28;20028;-45
2023/05/21 08:25:39;;;;;;;11.25;6.88;;;;;;;17.51;100.00;101847.50;5071368;28;20024;-46
2023/05/21 08:28:05;;;;;;;14.93;7.95;;;;;;;17.52;100.00;101843.72;5080226;28;20024;-46
2023/05/21 08:30:31;;;;;;;12.57;7.40;;;;;;;17.55;100.00;101846.03;5087062;28;20031;-50
2023/05/21 08:32:57;;;;;;;12.93;7.35;;;;;;;17.58;100.00;101842.06;5084365;28;20415;-47
2023/05/21 08:35:22;;;;;;;12.73;7.05;;;;;;;17.52;100.00;101843.72;5110711;28;20031;-49
2023/05/21 08:37:48;;;;;;;15.95;8.00;;;;;;;17.50;100.00;101844.97;5092568;28;20028;-48
2023/05/21 08:40:13;;;;;;;11.27;7.40;;;;;;;17.46;100.00;101854.59;5089475;28;20028;-45
2023/05/21 08:42:45;;;;;;;12.50;7.70;;;;;;;17.46;100.00;101849.16;5090922;28;20512;-46
2023/05/21 08:45:12;;;;;;;15.98;7.97;;;;;;;17.41;100.00;101847.03;5090951;28;20028;-46
2023/05/21 08:47:40;;;;;;;12.35;7.80;;;;;;;17.38;100.00;101842.00;5090480;28;20016;-45
2023/05/21 08:50:10;;;;;;;13.68;8.23;;;;;;;17.44;100.00;101838.47;5077215;28;20123;-44
2023/05/21 08:52:36;;;;;;;17.65;7.80;;;;;;;17.59;100.00;101843.78;5072875;28;20483;-47
2023/05/21 08:55:03;;;;;;;13.13;7.53;;;;;;;17.66;100.00;101836.44;5085347;28;20047;-45
2023/05/21 08:57:29;;;;;;;11.75;7.35;;;;;;;17.71;100.00;101842.13;5089344;28;20040;-45
2023/05/21 08:59:55;;;;;;;13.07;7.57;;;;;;;17.73;100.00;101837.31;5069238;28;20020;-49
2023/05/21 09:02:20;;;;;;;18.15;8.00;;;;;;;17.82;100.00;101837.16;5070665;28;20027;-46
2023/05/21 09:04:48;;;;;;;13.48;7.53;;;;;;;18.01;100.00;101825.47;5070683;28;20332;-51
2023/05/21 09:07:13;;;;;;;21.58;8.00;;;;;;;18.17;100.00;101827.78;5070618;28;20020;-47
2023/05/21 09:09:46;;;;;;;13.23;8.18;;;;;;;18.29;100.00;101827.16;5072021;28;20021;-45
2023/05/21 09:12:12;;;;;;;11.15;7.05;;;;;;;18.50;100.00;101829.66;5089083;28;20461;-46
2023/05/21 09:14:37;;;;;;;14.10;7.47;;;;;;;18.65;100.00;101824.84;5090533;28;20028;-47
2023/05/21 09:17:03;;;;;;;12.77;6.65;;;;;;;18.75;100.00;101823.63;5089537;28;20096;-47
2023/05/21 09:19:30;;;;;;;13.38;6.88;;;;;;;18.84;100.00;101814.97;5089103;28;20024;-46
2023/05/21 09:22:01;;;;;;;12.20;7.25;;;;;;;19.27;100.00;101810.84;5085039;28;20020;-47
2023/05/21 09:24:29;;;;;;;13.23;6.80;;;;;;;19.74;100.00;101804.13;5089253;28;20028;-44
2023/05/21 09:26:56;;;;;;;14.95;7.15;;;;;;;20.10;100.00;101812.72;5077610;28;20043;-47
2023/05/21 09:29:22;;;;;;;14.38;7.00;;;;;;;20.17;100.00;101808.06;5070042;28;20039;-48
2023/05/21 09:31:48;;;;;;;16.83;8.25;;;;;;;20.14;100.00;101803.88;5086290;28;20020;-48
2023/05/21 09:34:14;;;;;;;11.25;6.45;;;;;;;20.07;100.00;101813.19;5090827;28;20505;-45
2023/05/21 09:36:39;;;;;;;13.23;7.38;;;;;;;19.98;100.00;101809.03;5090557;28;20025;-46
2023/05/21 09:39:05;;;;;;;15.25;7.35;;;;;;;19.88;100.00;101812.22;5092760;28;20039;-46
2023/05/21 09:41:34;;;;;;;13.35;6.78;;;;;;;20.06;100.00;101806.03;5094893;28;20077;-46
2023/05/21 09:44:00;;;;;;;13.93;6.85;;;;;;;20.33;100.00;101801.19;5092594;28;20020;-48
2023/05/21 09:46:26;;;;;;;10.38;6.88;;;;;;;20.51;100.00;101797.66;5087368;28;20032;-46
2023/05/21 09:48:51;;;;;;;9.18;6.35;;;;;;;21.01;100.00;101803.06;5079563;28;20020;-50
2023/05/21 09:51:18;;;;;;;11.80;6.25;;;;;;;21.07;100.00;101810.38;5093152;28;20108;-48
2023/05/21 09:53:51;;;;;;;11.33;6.60;;;;;;;21.13;100.00;101809.44;5094750;28;20048;-45
2023/05/21 09:56:22;;;;;;;11.73;6.05;;;;;;;21.01;100.00;101811.25;5092098;28;20079;-47
2023/05/21 09:58:47;;;;;;;15.55;6.40;;;;;;;21.06;100.00;101814.16;5092728;28;20043;-46
2023/05/21 10:01:13;;;;;;;10.43;6.35;;;;;;;21.00;100.00;101804.97;5090595;28;20390;-46
2023/05/21 10:03:41;;;;;;;10.35;5.93;;;;;;;20.96;100.00;101811.13;5091593;28;20114;-46
2023/05/21 10:06:08;;;;;;;9.20;6.15;;;;;;;20.93;100.00;101798.75;5085813;28;20029;-45
2023/05/21 10:08:35;;;;;;;12.30;6.23;;;;;;;20.75;100.00;101804.19;5075976;28;20123;-45
2023/05/21 10:11:02;;;;;;;8.35;6.18;;;;;;;20.74;100.00;101797.88;5094365;28;20413;-46
2023/05/21 10:13:27;;;;;;;10.07;6.27;;;;;;;20.76;100.00;101795.75;5089791;28;20481;-44
2023/05/21 10:15:58;;;;;;;13.20;6.78;;;;;;;20.71;100.00;101795.59;5082204;28;20033;-47
2023/05/21 10:18:24;;;;;;;14.32;6.68;;;;;;;20.44;100.00;101796.91;5073214;28;20107;-48
2023/05/21 10:20:50;;;;;;;10.10;6.28;;;;;;;20.30;100.00;101785.22;5088940;28;20096;-46
2023/05/21 10:23:16;;;;;;;10.98;6.78;;;;;;;20.22;100.00;101788.25;5081514;28;20470;-46
2023/05/21 10:25:42;;;;;;;10.02;6.72;;;;;;;20.28;100.00;101777.25;5094057;28;20032;-47
2023/05/21 10:28:07;;;;;;;18.50;6.30;;;;;;;20.38;100.00;101780.31;5082179;28;20027;-44
2023/05/21 10:30:33;;;;;;;14.68;5.78;;;;;;;20.56;100.00;101773.22;5092465;28;20478;-45
2023/05/21 10:32:58;;;;;;;14.77;5.53;;;;;;;20.67;100.00;101769.78;5084133;28;20024;-46
2023/05/21 10:35:24;;;;;;;19.40;5.57;;;;;;;20.68;100.00;101770.59;5088882;28;20051;-47
2023/05/21 10:37:50;;;;;;;17.15;6.78;;;;;;;20.83;100.00;101780.09;5089269;28;20021;-45
2023/05/21 10:40:16;;;;;;;13.45;5.45;;;;;;;21.13;100.00;101773.84;5084082;28;20036;-46
2023/05/21 10:42:59;;;;;;;13.65;5.18;;;;;;;21.42;100.00;101766.75;5082055;28;20032;-48
2023/05/21 10:45:34;;;;;;;11.82;5.00;;;;;;;21.69;100.00;101772.69;5074003;28;20552;-47
2023/05/21 10:48:08;;;;;;;11.80;4.85;;;;;;;21.77;100.00;101778.91;5091747;28;20028;-46
2023/05/21 10:50:58;;;;;;;16.08;4.70;;;;;;;22.17;100.00;101773.66;5082750;28;20039;-46
2023/05/21 10:53:23;;;;;;;15.52;4.95;;;;;;;22.16;100.00;101771.13;5079489;28;20056;-50
2023/05/21 10:56:05;;;;;;;15.05;5.03;;;;;;;22.21;100.00;101777.59;5080492;28;20013;-46
2023/05/21 10:59:02;;;;;;;13.27;4.85;;;;;;;22.10;100.00;101768.28;5082372;28;20044;-46
2023/05/21 11:01:29;;;;;;;11.85;4.60;;;;;;;22.54;100.00;101779.78;5083336;28;20032;-44
2023/05/21 11:03:54;;;;;;;12.50;4.25;;;;;;;22.70;100.00;101769.16;5075206;28;20521;-48
2023/05/21 11:06:25;;;;;;;14.30;5.13;;;;;;;22.78;98.61;101758.63;5076826;28;20036;-44